Time;durP1;ratioP1;P1;durP2;ratioP2;P2;SDS_P1;SDS_P2;PMS_P1;PMS_P2;Temp;Humidity;BMP_temperature;BMP_pressure;BME280_temperature;BME280_humidity;BME280_pressure;Samples;Min_cycle;Max_cycle;Signal;HPM_P1;HPM_P2
2021/09/24 00:16:42;;;;;;;33.00;24.40;;;16.50;99.90;;;;;;5302399;23;20492;-92
2021/09/24 00:19:19;;;;;;;34.10;24.20;;;16.60;99.90;;;;;;5003335;28;20966;-92
2021/09/24 00:21:47;;;;;;;35.77;26.80;;;16.50;99.90;;;;;;5003031;28;20439;-91
2021/09/24 00:24:15;;;;;;;35.10;24.37;;;16.60;99.90;;;;;;5002908;28;20424;-92
2021/09/24 00:34:27;;;;;;;37.17;28.17;;;16.50;99.90;;;;;;5441120;23;20468;-95
2021/09/24 01:26:13;;;;;;;29.77;22.87;;;16.20;99.90;;;;;;5054643;23;20460;-93
2021/09/24 01:28:39;;;;;;;35.87;24.83;;;15.90;99.90;;;;;;5002219;28;20442;-92
2021/09/24 01:31:12;;;;;;;27.73;22.93;;;16.60;99.90;;;;;;5002333;28;20436;-92
2021/09/24 01:38:50;;;;;;;29.63;21.67;;;16.30;99.90;;;;;;5421459;23;20498;-93
2021/09/24 01:41:21;;;;;;;25.07;21.00;;;18.10;99.90;;;;;;5001569;28;20430;-94
2021/09/24 01:43:54;;;;;;;30.70;20.90;;;15.80;99.90;;;;;;5019184;28;20428;-91
2021/09/24 01:46:22;;;;;;;27.97;20.93;;;16.70;99.90;;;;;;5205837;22;20495;-92
2021/09/24 01:49:49;;;;;;;22.10;17.83;;;15.80;99.90;;;;;;5013751;28;20463;-91
2021/09/24 01:53:15;;;;;;;23.07;20.43;;;17.60;99.90;;;;;;5002031;28;20416;-91
2021/09/24 02:06:50;;;;;;;33.60;24.90;;;16.20;99.90;;;;;;5961973;23;20247;-92
2021/09/24 02:09:18;;;;;;;33.30;26.70;;;18.50;99.90;;;;;;5018086;28;20528;-92
2021/09/24 02:11:49;;;;;;;33.07;27.80;;;16.30;99.90;;;;;;5018295;28;20226;-93
2021/09/24 02:14:14;;;;;;;30.90;27.53;;;16.20;99.90;;;;;;5001590;28;20415;-91
2021/09/24 02:16:40;;;;;;;32.70;25.93;;;18.40;99.90;;;;;;5000709;28;20468;-92
2021/09/24 02:19:06;;;;;;;29.70;23.30;;;16.40;99.90;;;;;;5001268;28;20162;-92
2021/09/24 02:21:39;;;;;;;34.37;26.93;;;17.00;99.90;;;;;;5000959;28;20176;-93
2021/09/24 02:24:12;;;;;;;29.83;25.70;;;16.50;99.90;;;;;;5001443;28;20432;-93
2021/09/24 02:26:56;;;;;;;33.30;25.00;;;16.60;99.90;;;;;;5001161;28;20419;-93
2021/09/24 02:29:51;;;;;;;32.67;26.27;;;18.10;99.90;;;;;;4945555;28;20439;-91
2021/09/24 02:34:52;;;;;;;28.80;24.33;;;16.20;99.90;;;;;;5428140;23;20488;-92
2021/09/24 02:37:18;;;;;;;28.03;24.53;;;16.90;99.90;;;;;;5059865;23;20480;-90
2021/09/24 02:51:22;;;;;;;31.13;24.53;;;16.30;99.90;;;;;;5778330;23;20456;-93
2021/09/24 02:53:48;;;;;;;30.87;26.07;;;16.40;99.90;;;;;;5000864;28;20424;-93
2021/09/24 02:56:13;;;;;;;30.43;24.93;;;17.80;99.90;;;;;;5000578;28;20483;-92
2021/09/24 02:58:44;;;;;;;30.00;25.20;;;16.50;99.90;;;;;;5000625;28;20189;-93
2021/09/24 03:01:13;;;;;;;28.53;23.60;;;16.70;99.90;;;;;;5000937;28;20189;-93
2021/09/24 03:03:38;;;;;;;31.77;26.50;;;16.80;99.90;;;;;;5000559;28;20420;-92
2021/09/24 03:06:04;;;;;;;31.03;23.10;;;16.50;99.90;;;;;;5017102;28;20487;-90
2021/09/24 03:08:32;;;;;;;26.60;23.90;;;17.90;99.90;;;;;;4999494;28;20224;-92
2021/09/24 03:10:57;;;;;;;28.00;22.73;;;16.30;99.90;;;;;;5000034;28;20209;-92
2021/09/24 03:13:26;;;;;;;29.13;22.43;;;17.30;99.90;;;;;;4999419;28;20516;-93
2021/09/24 03:15:53;;;;;;;29.50;25.47;;;17.30;99.90;;;;;;5017524;28;20196;-94
2021/09/24 03:19:08;;;;;;;25.10;22.70;;;16.40;99.90;;;;;;5016899;28;20443;-93
2021/09/24 03:24:53;;;;;;;26.57;23.10;;;16.70;99.90;;;;;;5562081;23;20487;-93
2021/09/24 03:42:59;;;;;;;32.93;26.07;;;16.30;99.90;;;;;;4937599;23;20442;-91
2021/09/24 03:45:27;;;;;;;38.50;26.10;;;16.40;99.90;;;;;;5018671;28;20496;-95
2021/09/24 03:47:56;;;;;;;35.50;26.97;;;16.10;99.90;;;;;;5018936;28;20412;-92
2021/09/24 03:50:24;;;;;;;35.70;24.77;;;16.80;99.90;;;;;;5284220;23;20515;-91
2021/09/24 03:52:55;;;;;;;39.23;27.00;;;16.00;99.90;;;;;;5020307;28;20428;-92
2021/09/24 03:55:21;;;;;;;38.90;26.27;;;16.70;99.90;;;;;;5002946;28;20424;-93
2021/09/24 03:57:52;;;;;;;41.83;27.70;;;18.20;99.90;;;;;;5002525;28;20448;-92
2021/09/24 04:00:19;;;;;;;45.17;26.97;;;16.60;99.90;;;;;;5017313;28;20408;-91
2021/09/24 04:02:47;;;;;;;45.93;30.17;;;16.40;99.90;;;;;;5017341;28;20421;-93
2021/09/24 04:05:14;;;;;;;43.57;28.30;;;15.90;99.90;;;;;;5003019;28;20186;-94
2021/09/24 04:07:43;;;;;;;42.17;28.93;;;16.40;99.90;;;;;;5018757;28;20413;-92
2021/09/24 04:10:19;;;;;;;47.67;29.67;;;16.20;99.90;;;;;;5018167;28;20431;-93
2021/09/24 04:12:56;;;;;;;41.07;28.80;;;17.60;99.90;;;;;;5234128;22;20450;-92
2021/09/24 04:18:01;;;;;;;47.70;31.70;;;16.40;99.90;;;;;;5014519;28;20539;-92
2021/09/24 04:20:30;;;;;;;60.70;30.53;;;15.60;99.90;;;;;;5403061;23;20483;-92
2021/09/24 04:22:58;;;;;;;49.10;30.50;;;15.70;99.90;;;;;;4999715;28;20514;-93
2021/09/24 04:28:04;;;;;;;62.43;32.87;;;16.40;99.90;;;;;;5468780;23;21226;-93
2021/09/24 04:30:32;;;;;;;55.40;34.80;;;18.10;99.90;;;;;;5086675;23;20476;-92
2021/09/24 04:32:57;;;;;;;59.67;34.30;;;16.40;99.90;;;;;;5017555;28;20415;-93
2021/09/24 04:35:24;;;;;;;57.87;35.30;;;18.50;99.90;;;;;;4999502;28;20495;-91
2021/09/24 04:38:15;;;;;;;71.20;37.43;;;16.10;99.90;;;;;;5000666;28;20158;-93
2021/09/24 04:41:08;;;;;;;70.70;37.87;;;16.10;99.90;;;;;;4982130;28;20429;-93
2021/09/24 04:44:15;;;;;;;64.77;38.00;;;16.90;99.90;;;;;;5000404;28;20420;-93
2021/09/24 04:49:20;;;;;;;76.27;39.87;;;16.40;99.90;;;;;;4571493;23;20491;-93
2021/09/24 04:51:46;;;;;;;79.80;42.47;;;17.10;99.90;;;;;;5016888;28;20404;-92
2021/09/24 04:54:12;;;;;;;68.17;39.40;;;16.30;99.90;;;;;;4999496;28;20475;-90
2021/09/24 04:56:57;;;;;;;75.50;41.53;;;16.80;99.90;;;;;;4997646;28;20256;-92
2021/09/24 04:59:22;;;;;;;85.93;42.90;;;16.90;99.90;;;;;;4981718;28;20193;-91
2021/09/24 05:01:49;;;;;;;78.40;41.73;;;18.70;99.90;;;;;;4998100;28;20421;-94
2021/09/24 05:07:09;;;;;;;81.47;38.07;;;17.00;99.90;;;;;;5165142;23;20486;-89
2021/09/24 05:09:52;;;;;;;78.07;41.87;;;16.30;99.90;;;;;;5143359;23;21334;-90
2021/09/24 05:12:23;;;;;;;74.50;42.13;;;17.80;99.90;;;;;;5236356;23;20481;-93
2021/09/24 05:15:03;;;;;;;66.10;39.30;;;16.40;99.90;;;;;;4977048;28;20178;-93
2021/09/24 05:17:29;;;;;;;72.13;38.90;;;16.50;99.90;;;;;;4993422;28;20477;-92
2021/09/24 05:20:04;;;;;;;78.33;40.57;;;16.10;99.90;;;;;;4994136;28;20441;-95
2021/09/24 05:25:22;;;;;;;84.13;39.83;;;16.80;99.90;;;;;;5066114;23;20480;-93
2021/09/24 05:27:51;;;;;;;82.63;43.47;;;16.00;99.90;;;;;;5084865;23;20480;-89
2021/09/24 05:30:19;;;;;;;81.50;42.97;;;16.30;99.90;;;;;;4993677;28;20428;-92
2021/09/24 05:33:01;;;;;;;78.45;39.50;;;17.10;99.90;;;;;;4864246;23;10000701;-92
2021/09/24 05:35:28;;;;;;;75.40;39.13;;;16.50;99.90;;;;;;4978044;28;20378;-91
2021/09/24 05:37:54;;;;;;;82.90;42.80;;;18.30;99.90;;;;;;4988390;28;20436;-90
2021/09/24 05:40:19;;;;;;;73.57;41.77;;;16.50;99.90;;;;;;4984276;28;20409;-89
2021/09/24 05:42:52;;;;;;;75.10;41.60;;;17.50;99.90;;;;;;5001868;28;20775;-90
2021/09/24 05:45:18;;;;;;;65.67;37.07;;;16.40;99.90;;;;;;5004997;28;20206;-90
2021/09/24 05:47:47;;;;;;;69.40;38.93;;;16.50;99.90;;;;;;4954091;28;20506;-90
2021/09/24 05:50:14;;;;;;;72.53;39.50;;;18.10;99.90;;;;;;5001941;28;20431;-86
2021/09/24 05:52:52;;;;;;;68.90;39.17;;;18.60;99.90;;;;;;4984959;28;20436;-88
2021/09/24 05:55:23;;;;;;;65.03;36.43;;;16.90;99.90;;;;;;4984440;28;20511;-89
2021/09/24 05:57:50;;;;;;;67.23;36.33;;;15.10;99.90;;;;;;4980276;28;20456;-89
2021/09/24 06:00:35;;;;;;;55.83;33.20;;;15.80;99.90;;;;;;4968825;28;20493;-91
2021/09/24 06:03:05;;;;;;;59.70;33.00;;;16.10;99.90;;;;;;4982007;28;20409;-94
2021/09/24 06:05:30;;;;;;;50.00;29.07;;;17.90;99.90;;;;;;4949325;28;20464;-91
2021/09/24 06:07:56;;;;;;;60.43;34.20;;;17.50;99.90;;;;;;4980441;28;20401;-92
2021/09/24 06:10:22;;;;;;;56.00;32.70;;;16.70;99.90;;;;;;4968068;28;20174;-88
2021/09/24 06:12:48;;;;;;;50.83;30.73;;;18.30;99.90;;;;;;4975170;28;20270;-87
2021/09/24 06:15:21;;;;;;;50.27;32.40;;;17.10;99.90;;;;;;5002400;28;20447;-92
2021/09/24 06:17:52;;;;;;;59.80;34.67;;;16.30;99.90;;;;;;4991153;28;20556;-95
2021/09/24 06:20:19;;;;;;;56.43;33.23;;;16.30;99.90;;;;;;4992353;28;20431;-93
2021/09/24 06:22:45;;;;;;;51.97;33.57;;;16.90;99.90;;;;;;5004969;28;20408;-94
2021/09/24 06:25:16;;;;;;;48.60;29.70;;;18.00;99.90;;;;;;4989514;28;20429;-91
2021/09/24 06:27:43;;;;;;;47.93;31.00;;;17.50;99.90;;;;;;4991993;28;20425;-90
2021/09/24 06:30:12;;;;;;;40.80;28.33;;;18.00;99.90;;;;;;4971260;28;20460;-94
2021/09/24 06:32:38;;;;;;;48.67;28.47;;;17.20;99.90;;;;;;4965550;28;20469;-90
2021/09/24 06:35:05;;;;;;;42.33;28.00;;;17.00;99.90;;;;;;5001192;28;20510;-92
2021/09/24 06:37:31;;;;;;;52.47;28.93;;;16.20;99.90;;;;;;4987984;28;20489;-93
2021/09/24 06:39:57;;;;;;;43.73;27.27;;;16.20;99.90;;;;;;4971624;28;20438;-92
2021/09/24 06:42:25;;;;;;;41.50;27.40;;;16.20;99.90;;;;;;4959678;28;20437;-93
2021/09/24 06:44:51;;;;;;;40.67;28.00;;;16.00;99.90;;;;;;4965947;28;20433;-92
2021/09/24 06:47:18;;;;;;;39.67;27.53;;;17.90;99.90;;;;;;4984876;28;20456;-92
2021/09/24 06:49:46;;;;;;;39.53;28.27;;;17.60;99.90;;;;;;4982555;28;20426;-92
2021/09/24 06:52:15;;;;;;;40.00;26.73;;;16.00;99.90;;;;;;4970166;28;20481;-89
2021/09/24 06:54:43;;;;;;;45.03;30.53;;;16.30;99.90;;;;;;4958769;28;20434;-90
2021/09/24 06:57:10;;;;;;;42.50;30.63;;;17.20;99.90;;;;;;4961540;28;20470;-93
2021/09/24 06:59:40;;;;;;;46.53;31.73;;;17.00;99.90;;;;;;4949790;28;20419;-93
2021/09/24 07:02:08;;;;;;;52.50;34.10;;;16.50;99.90;;;;;;4937657;29;20430;-94
2021/09/24 07:04:43;;;;;;;47.40;34.53;;;17.30;99.90;;;;;;4955380;29;20422;-91
2021/09/24 07:07:11;;;;;;;51.20;32.00;;;16.30;99.90;;;;;;4975244;28;20409;-93
2021/09/24 07:09:37;;;;;;;48.87;29.83;;;15.50;99.90;;;;;;4970368;28;20422;-94
2021/09/24 07:12:07;;;;;;;53.77;33.60;;;15.90;99.90;;;;;;4969623;28;20418;-95
2021/09/24 07:14:33;;;;;;;60.93;34.30;;;16.30;99.90;;;;;;4946458;29;20509;-89
2021/09/24 07:16:59;;;;;;;48.53;31.47;;;17.30;99.90;;;;;;4961849;28;20549;-87
2021/09/24 07:19:26;;;;;;;51.60;33.40;;;16.20;99.90;;;;;;4964419;28;20489;-87
2021/09/24 07:21:51;;;;;;;45.43;31.27;;;15.30;99.90;;;;;;4961188;28;20460;-87
2021/09/24 07:24:17;;;;;;;35.87;27.70;;;16.10;99.90;;;;;;4960920;28;20410;-86
2021/09/24 07:26:44;;;;;;;41.63;30.80;;;17.60;99.90;;;;;;4960642;28;20167;-88
2021/09/24 07:29:10;;;;;;;38.60;30.47;;;15.80;99.90;;;;;;4961328;28;20790;-89
2021/09/24 07:31:35;;;;;;;44.13;28.27;;;16.30;99.90;;;;;;4965687;28;20402;-88
2021/09/24 07:34:03;;;;;;;40.33;30.10;;;16.30;99.90;;;;;;4977655;28;20232;-90
2021/09/24 07:36:29;;;;;;;37.07;28.80;;;17.30;99.90;;;;;;4963583;28;20266;-90
2021/09/24 07:38:57;;;;;;;45.13;27.60;;;18.10;99.90;;;;;;4977239;28;20460;-90
2021/09/24 07:41:24;;;;;;;49.60;29.17;;;14.90;99.90;;;;;;4976717;28;20229;-88
2021/09/24 07:43:53;;;;;;;42.90;29.70;;;16.30;99.90;;;;;;4960317;28;20419;-90
2021/09/24 07:46:21;;;;;;;35.50;27.33;;;16.20;99.90;;;;;;4986491;28;20516;-92
2021/09/24 07:48:50;;;;;;;37.03;30.83;;;16.40;99.90;;;;;;4625774;28;9999780;-92
2021/09/24 07:51:27;;;;;;;42.93;29.50;;;16.20;99.90;;;;;;5009911;28;20433;-91
2021/09/24 07:53:53;;;;;;;43.00;29.80;;;16.50;99.90;;;;;;5009188;28;20400;-93
2021/09/24 07:56:19;;;;;;;43.70;30.67;;;15.80;99.90;;;;;;4970394;28;20480;-92
2021/09/24 07:59:29;;;;;;;43.33;30.10;;;15.40;99.90;;;;;;4989596;28;20476;-93
2021/09/24 08:01:55;;;;;;;42.47;28.67;;;16.20;99.90;;;;;;4986395;28;20421;-90
2021/09/24 08:04:21;;;;;;;38.43;24.17;;;15.00;99.90;;;;;;4991635;28;20443;-94
2021/09/24 08:06:50;;;;;;;36.93;27.80;;;16.20;99.90;;;;;;4994938;28;20216;-94
2021/09/24 08:09:17;;;;;;;36.60;26.23;;;16.20;99.90;;;;;;5009968;28;20173;-92
2021/09/24 08:11:47;;;;;;;41.43;26.20;;;17.30;99.90;;;;;;4995934;28;20444;-93
2021/09/24 08:14:33;;;;;;;43.53;28.97;;;16.20;99.90;;;;;;4993669;28;20444;-90
2021/09/24 08:17:30;;;;;;;39.70;25.80;;;17.00;99.90;;;;;;5014036;28;20487;-94
2021/09/24 08:19:56;;;;;;;33.40;23.80;;;16.10;99.90;;;;;;4993605;28;20436;-92
2021/09/24 08:22:23;;;;;;;36.00;24.37;;;16.30;99.90;;;;;;4991891;28;20420;-92
2021/09/24 08:24:49;;;;;;;37.93;25.03;;;16.30;99.90;;;;;;4994264;28;20169;-90
2021/09/24 08:27:15;;;;;;;36.40;23.40;;;15.70;99.90;;;;;;4990111;28;20417;-91
2021/09/24 08:29:43;;;;;;;31.80;22.20;;;17.30;99.90;;;;;;4993153;28;20225;-91
2021/09/24 08:32:10;;;;;;;33.70;23.30;;;16.50;99.90;;;;;;4992070;28;20161;-91
2021/09/24 08:34:39;;;;;;;40.77;25.97;;;15.80;99.90;;;;;;4965648;28;20494;-87
2021/09/24 08:37:04;;;;;;;27.40;21.07;;;16.40;99.90;;;;;;4999889;28;20470;-89
2021/09/24 08:39:30;;;;;;;31.37;21.07;;;17.50;99.90;;;;;;4978721;28;20527;-89
2021/09/24 08:41:58;;;;;;;32.00;23.10;;;16.40;99.90;;;;;;4980098;28;20177;-90
2021/09/24 08:44:24;;;;;;;28.70;21.00;;;16.50;99.90;;;;;;4967771;28;20176;-90
2021/09/24 08:46:50;;;;;;;34.70;24.50;;;16.50;99.90;;;;;;4998442;28;20416;-87
2021/09/24 08:49:18;;;;;;;30.77;22.80;;;16.60;99.90;;;;;;4994758;28;20879;-87
2021/09/24 08:51:45;;;;;;;31.07;22.37;;;16.60;99.90;;;;;;4995475;28;20790;-86
2021/09/24 08:54:11;;;;;;;28.53;20.70;;;16.70;99.90;;;;;;4995451;28;20405;-86
2021/09/24 08:56:36;;;;;;;31.80;21.50;;;16.70;99.90;;;;;;4981695;28;20610;-88
2021/09/24 08:59:02;;;;;;;36.20;23.70;;;16.70;99.90;;;;;;4978770;28;20429;-87
2021/09/24 09:01:28;;;;;;;30.97;23.63;;;16.60;99.90;;;;;;4980117;28;20598;-88
2021/09/24 09:03:55;;;;;;;33.90;24.27;;;16.70;99.90;;;;;;4985411;28;20432;-88
2021/09/24 09:06:27;;;;;;;27.77;22.10;;;18.10;99.90;;;;;;4987495;28;20196;-92
2021/09/24 09:09:04;;;;;;;26.53;20.27;;;16.60;99.90;;;;;;5003337;28;20462;-93
2021/09/24 09:11:32;;;;;;;29.83;22.33;;;16.00;99.90;;;;;;5002803;28;20408;-89
2021/09/24 09:14:01;;;;;;;24.80;17.77;;;16.20;99.90;;;;;;4988352;28;20492;-90
2021/09/24 09:16:30;;;;;;;29.23;20.17;;;16.70;99.90;;;;;;4983833;28;21004;-88
2021/09/24 09:19:15;;;;;;;30.13;20.30;;;17.40;99.90;;;;;;5004347;28;20404;-91
2021/09/24 09:21:47;;;;;;;27.57;18.20;;;16.70;99.90;;;;;;4986536;28;20424;-88
2021/09/24 09:24:22;;;;;;;22.03;16.63;;;17.60;99.90;;;;;;4985965;28;20511;-90
2021/09/24 09:26:48;;;;;;;27.83;19.17;;;17.70;99.90;;;;;;4986300;28;20412;-89
2021/09/24 09:29:14;;;;;;;23.27;18.60;;;16.70;99.90;;;;;;5001600;28;20436;-88
2021/09/24 09:31:41;;;;;;;24.03;18.57;;;17.20;99.90;;;;;;4978155;28;20417;-89
2021/09/24 09:34:10;;;;;;;23.30;17.13;;;16.70;99.90;;;;;;4982463;28;20465;-91
2021/09/24 09:36:40;;;;;;;24.63;17.70;;;18.40;99.90;;;;;;4977092;28;20484;-85
2021/09/24 09:39:14;;;;;;;22.53;17.93;;;16.80;99.70;;;;;;4958248;28;20524;-87
2021/09/24 09:41:58;;;;;;;24.80;18.50;;;17.10;99.40;;;;;;4974243;28;20937;-86
2021/09/24 09:44:29;;;;;;;23.07;18.40;;;16.80;99.90;;;;;;4963541;28;20529;-84
2021/09/24 09:46:56;;;;;;;21.73;18.17;;;16.80;99.50;;;;;;4961365;28;20785;-85
2021/09/24 09:49:25;;;;;;;24.70;18.27;;;16.80;99.40;;;;;;4980633;28;20421;-86
2021/09/24 09:52:10;;;;;;;23.17;17.53;;;16.80;99.60;;;;;;4963004;28;20464;-85
2021/09/24 09:55:03;;;;;;;25.13;17.90;;;16.90;99.50;;;;;;4980263;28;20448;-86
2021/09/24 09:57:34;;;;;;;22.57;16.43;;;17.00;98.90;;;;;;4981944;28;20499;-86
2021/09/24 10:00:02;;;;;;;21.13;16.90;;;16.90;98.70;;;;;;4981537;28;20405;-87
2021/09/24 10:02:31;;;;;;;22.73;16.90;;;16.80;99.00;;;;;;4983347;28;20421;-87
2021/09/24 10:04:58;;;;;;;19.60;15.07;;;17.40;98.10;;;;;;4965963;28;20930;-88
2021/09/24 10:07:34;;;;;;;20.50;15.67;;;17.50;97.90;;;;;;4983157;28;20409;-85
2021/09/24 10:10:19;;;;;;;18.30;15.53;;;18.30;98.30;;;;;;4964970;28;20775;-86
2021/09/24 10:12:45;;;;;;;18.30;13.50;;;17.70;97.00;;;;;;4982363;28;20448;-85
2021/09/24 10:15:16;;;;;;;16.77;14.97;;;18.90;98.30;;;;;;4984212;28;20409;-88
2021/09/24 10:17:43;;;;;;;15.30;13.80;;;18.20;96.50;;;;;;4966299;28;20352;-85
2021/09/24 10:20:11;;;;;;;16.53;14.40;;;20.20;97.00;;;;;;4982416;28;20409;-83
2021/09/24 10:22:37;;;;;;;15.07;13.57;;;17.50;94.40;;;;;;4964573;28;20425;-85
2021/09/24 10:25:04;;;;;;;19.23;13.90;;;18.40;95.10;;;;;;4981614;28;20410;-86
2021/09/24 10:27:35;;;;;;;15.50;13.07;;;18.70;94.00;;;;;;4964744;28;20425;-90
2021/09/24 10:30:09;;;;;;;18.13;13.57;;;18.90;93.10;;;;;;4978913;28;20913;-90
2021/09/24 10:32:34;;;;;;;17.20;13.40;;;18.90;92.60;;;;;;4962209;28;20588;-90
2021/09/24 10:35:06;;;;;;;14.07;12.57;;;19.00;92.50;;;;;;4965694;28;20409;-93
2021/09/24 10:37:34;;;;;;;17.13;13.03;;;19.00;92.20;;;;;;4967714;28;20879;-90
2021/09/24 10:40:26;;;;;;;28.33;20.43;;;20.50;93.00;;;;;;4984060;28;20422;-90
2021/09/24 10:42:56;;;;;;;15.80;14.20;;;19.00;92.10;;;;;;4952053;28;20436;-88
2021/09/24 10:45:35;;;;;;;14.43;13.13;;;19.40;92.70;;;;;;4967591;28;20496;-90
2021/09/24 10:48:03;;;;;;;30.90;23.13;;;19.00;92.10;;;;;;4966804;28;20500;-90
2021/09/24 10:50:32;;;;;;;39.67;32.40;;;19.00;91.80;;;;;;4983663;28;20437;-89
2021/09/24 10:53:10;;;;;;;15.60;13.87;;;20.30;92.90;;;;;;4968027;28;20449;-91
2021/09/24 10:55:53;;;;;;;15.47;13.87;;;19.40;92.90;;;;;;4984441;28;20413;-90
2021/09/24 10:58:28;;;;;;;16.30;13.13;;;19.20;91.30;;;;;;4966544;28;20429;-91
2021/09/24 11:00:58;;;;;;;13.40;11.63;;;19.10;91.60;;;;;;4967819;28;20420;-90
2021/09/24 11:03:35;;;;;;;16.47;13.37;;;19.30;91.30;;;;;;4968133;28;20420;-91
2021/09/24 11:06:07;;;;;;;13.00;11.90;;;19.50;91.20;;;;;;4599526;28;9999644;-86
2021/09/24 11:08:36;;;;;;;13.20;11.73;;;18.70;90.40;;;;;;4983937;28;20177;-91
2021/09/24 11:11:21;;;;;;;12.33;11.00;;;21.10;91.50;;;;;;4964646;28;21247;-88
2021/09/24 11:13:52;;;;;;;12.00;10.87;;;20.20;89.00;;;;;;4982103;28;20499;-90
2021/09/24 11:16:48;;;;;;;11.43;10.33;;;20.10;87.30;;;;;;4985577;28;20460;-88
2021/09/24 11:19:30;;;;;;;13.70;12.60;;;19.30;84.70;;;;;;4983262;28;20813;-94
2021/09/24 11:22:01;;;;;;;11.40;10.60;;;18.90;84.40;;;;;;4984612;28;20413;-91
2021/09/24 11:24:36;;;;;;;11.90;10.90;;;19.70;88.10;;;;;;4985802;28;20410;-87
2021/09/24 11:27:12;;;;;;;11.57;10.50;;;20.20;86.70;;;;;;4986303;28;20447;-88
2021/09/24 11:30:04;;;;;;;13.17;11.93;;;20.30;84.80;;;;;;4966103;28;20761;-89
2021/09/24 11:32:32;;;;;;;11.17;10.07;;;20.00;85.90;;;;;;4984189;28;20541;-90
2021/09/24 11:34:58;;;;;;;12.10;11.10;;;20.00;88.30;;;;;;4965156;28;20444;-88
2021/09/24 11:37:32;;;;;;;10.07;9.27;;;20.70;89.40;;;;;;4967489;28;20967;-88
2021/09/24 11:40:06;;;;;;;9.70;8.90;;;21.30;89.00;;;;;;4968584;28;20414;-90
2021/09/24 11:42:35;;;;;;;9.73;8.93;;;20.10;84.90;;;;;;4987067;28;20413;-89
2021/09/24 11:45:04;;;;;;;9.87;8.60;;;21.10;85.10;;;;;;4967102;28;20446;-89
2021/09/24 11:47:42;;;;;;;10.27;9.40;;;20.30;83.90;;;;;;4984020;28;20409;-91
2021/09/24 11:50:17;;;;;;;11.57;10.50;;;20.30;83.40;;;;;;4967614;28;20421;-88
2021/09/24 11:52:48;;;;;;;10.50;9.67;;;20.30;83.50;;;;;;4969437;28;20568;-91
2021/09/24 11:55:43;;;;;;;9.57;8.53;;;20.20;85.80;;;;;;4989207;28;20422;-91
2021/09/24 11:58:28;;;;;;;10.00;9.03;;;20.30;83.20;;;;;;4985710;28;20485;-90
2021/09/24 12:00:58;;;;;;;10.17;9.30;;;21.90;84.20;;;;;;4971548;28;20433;-90
2021/09/24 12:03:30;;;;;;;9.57;8.80;;;21.90;84.30;;;;;;4985907;28;20849;-91
2021/09/24 12:06:04;;;;;;;11.03;10.13;;;20.90;83.30;;;;;;4971495;28;20426;-91
2021/09/24 12:08:48;;;;;;;10.17;8.30;;;20.20;82.90;;;;;;4969263;28;21054;-94
2021/09/24 12:11:32;;;;;;;9.73;9.00;;;20.20;82.20;;;;;;4971861;28;20433;-92
2021/09/24 12:14:02;;;;;;;8.97;8.37;;;20.30;81.50;;;;;;4969701;28;20430;-90
2021/09/24 12:16:42;;;;;;;9.70;8.90;;;22.10;84.60;;;;;;4986692;28;20484;-90
2021/09/24 12:19:20;;;;;;;13.03;8.70;;;21.60;84.40;;;;;;4968844;28;20533;-89
2021/09/24 12:22:04;;;;;;;9.57;8.77;;;20.20;82.30;;;;;;4969054;28;20772;-88
2021/09/24 12:24:45;;;;;;;10.10;9.20;;;20.30;81.30;;;;;;4983997;28;20424;-91
2021/09/24 12:27:19;;;;;;;8.93;8.23;;;20.10;82.80;;;;;;4987188;28;20397;-93
2021/09/24 12:29:52;;;;;;;10.77;7.73;;;20.90;82.00;;;;;;4985604;28;20508;-89
2021/09/24 12:32:21;;;;;;;7.70;6.93;;;21.10;81.00;;;;;;4986995;28;20430;-87
2021/09/24 12:35:03;;;;;;;7.90;7.23;;;22.90;81.60;;;;;;4968849;28;20995;-89
2021/09/24 12:37:42;;;;;;;8.60;7.57;;;21.10;78.00;;;;;;4650871;28;10000417;-92
2021/09/24 12:40:15;;;;;;;6.27;6.07;;;21.40;78.30;;;;;;4988389;28;20173;-93
2021/09/24 12:42:53;;;;;;;8.17;7.57;;;20.50;76.50;;;;;;4986541;28;20421;-91
2021/09/24 12:45:57;;;;;;;7.07;6.50;;;21.10;79.00;;;;;;4988825;28;20424;-92
2021/09/24 12:48:33;;;;;;;;;;;;;;;;;;;;;
2021/09/24 12:51:07;;;;;;;6.97;6.67;;;20.90;79.40;;;;;;5005030;28;20515;-91
2021/09/24 12:53:42;;;;;;;6.43;6.03;;;22.00;79.00;;;;;;4987550;28;20431;-91
2021/09/24 12:56:10;;;;;;;7.53;6.40;;;22.50;80.30;;;;;;4988926;28;20527;-91
2021/09/24 12:59:06;;;;;;;6.07;5.60;;;20.90;77.00;;;;;;4990717;28;20439;-90
2021/09/24 13:01:32;;;;;;;6.00;5.70;;;21.10;78.00;;;;;;4986606;28;20448;-90
2021/09/24 13:04:00;;;;;;;7.63;6.90;;;21.00;78.20;;;;;;5006762;28;20416;-88
2021/09/24 13:06:28;;;;;;;6.50;6.00;;;21.70;78.50;;;;;;5004582;28;20507;-90
2021/09/24 13:08:59;;;;;;;6.90;6.30;;;21.40;78.00;;;;;;5006889;28;20869;-92
2021/09/24 13:11:30;;;;;;;6.63;6.23;;;21.00;79.90;;;;;;4990926;28;20463;-88
2021/09/24 13:14:07;;;;;;;7.63;6.97;;;20.20;77.00;;;;;;5006320;28;20530;-94
2021/09/24 13:16:35;;;;;;;7.33;6.80;;;20.60;79.30;;;;;;5005037;28;20478;-91
2021/09/24 13:19:01;;;;;;;7.43;7.03;;;20.70;81.60;;;;;;4988293;28;20423;-91
2021/09/24 13:21:40;;;;;;;7.20;6.50;;;20.40;81.00;;;;;;4986495;28;20476;-92
2021/09/24 13:24:06;;;;;;;5.93;5.73;;;19.20;79.20;;;;;;4988534;28;20420;-91
2021/09/24 13:26:35;;;;;;;9.00;7.43;;;22.00;82.60;;;;;;4988256;28;20526;-93
2021/09/24 13:29:01;;;;;;;5.97;5.67;;;21.50;82.30;;;;;;4987591;28;20173;-89
2021/09/24 13:31:30;;;;;;;6.17;5.77;;;21.80;83.30;;;;;;4970728;28;20456;-94
2021/09/24 13:34:05;;;;;;;6.63;6.00;;;21.20;81.30;;;;;;5011130;28;20460;-90
2021/09/24 13:36:33;;;;;;;6.30;6.00;;;20.20;83.90;;;;;;5010348;28;20453;-90
2021/09/24 13:39:03;;;;;;;7.00;6.17;;;20.20;80.80;;;;;;5143366;23;20501;-90
2021/09/24 13:41:32;;;;;;;7.13;5.80;;;21.60;82.70;;;;;;5065825;28;20552;-92
2021/09/24 13:43:58;;;;;;;6.17;5.67;;;20.10;81.40;;;;;;5046345;28;20426;-92
2021/09/24 13:46:24;;;;;;;6.10;5.60;;;21.10;85.20;;;;;;5046064;28;20833;-90
2021/09/24 13:48:52;;;;;;;5.70;5.40;;;21.10;84.40;;;;;;5047129;28;20175;-90
2021/09/24 13:51:18;;;;;;;16.33;6.13;;;20.10;83.00;;;;;;5064718;28;20417;-94
2021/09/24 13:53:43;;;;;;;6.03;5.63;;;21.70;85.40;;;;;;5053359;28;20503;-90
2021/09/24 13:56:12;;;;;;;5.70;5.50;;;21.50;84.20;;;;;;5051497;28;20214;-92
2021/09/24 13:59:05;;;;;;;5.80;5.50;;;19.00;79.80;;;;;;5038343;28;20234;-90
2021/09/24 14:01:31;;;;;;;7.70;7.30;;;19.70;79.30;;;;;;5052187;28;20421;-91
2021/09/24 14:04:07;;;;;;;5.10;5.00;;;20.30;82.60;;;;;;5055047;28;20422;-89
2021/09/24 14:06:32;;;;;;;5.17;4.97;;;20.40;80.80;;;;;;5020461;28;20448;-89
2021/09/24 14:09:19;;;;;;;5.00;4.70;;;20.30;81.90;;;;;;5049118;28;20442;-90
2021/09/24 14:11:53;;;;;;;4.47;4.33;;;20.30;80.60;;;;;;5047921;28;20254;-90
2021/09/24 14:14:23;;;;;;;5.27;4.87;;;20.80;81.60;;;;;;5048350;28;20437;-91
2021/09/24 14:16:54;;;;;;;4.97;4.63;;;20.50;79.60;;;;;;5061354;28;20452;-92
2021/09/24 14:19:25;;;;;;;4.53;4.33;;;20.60;80.90;;;;;;5030565;28;20422;-91
2021/09/24 14:21:51;;;;;;;5.90;5.40;;;21.10;80.10;;;;;;5062122;28;20412;-86
2021/09/24 14:24:24;;;;;;;6.73;5.20;;;21.90;84.10;;;;;;5063056;28;20449;-91
2021/09/24 14:26:50;;;;;;;5.50;5.20;;;20.90;78.30;;;;;;5046520;28;20259;-90
2021/09/24 14:29:21;;;;;;;4.80;4.50;;;20.60;79.70;;;;;;5040727;28;20803;-89
2021/09/24 14:31:57;;;;;;;19.60;17.60;;;21.00;80.90;;;;;;5045658;28;20753;-94
2021/09/24 14:34:52;;;;;;;5.47;5.10;;;21.00;80.90;;;;;;5050340;28;20440;-93
2021/09/24 14:38:12;;;;;;;5.73;5.23;;;21.10;77.60;;;;;;5017164;28;20465;-93
2021/09/24 14:41:03;;;;;;;;;;;;;;;;;;;;;
2021/09/24 14:43:38;;;;;;;5.13;4.73;;;21.00;78.00;;;;;;5063876;28;20453;-93
2021/09/24 14:46:27;;;;;;;4.93;4.60;;;19.50;80.40;;;;;;5028806;28;20452;-92
2021/09/24 14:52:19;;;;;;;5.73;5.23;;;21.20;79.20;;;;;;5012722;28;20427;-94
2021/09/24 14:54:51;;;;;;;4.10;4.00;;;21.00;77.50;;;;;;5031269;28;20413;-91
2021/09/24 14:57:25;;;;;;;5.47;5.17;;;21.20;79.10;;;;;;5069315;28;20484;-94
2021/09/24 15:00:13;;;;;;;;;;;;;;;;;;;;;
2021/09/24 15:03:04;;;;;;;5.33;5.03;;;22.80;80.40;;;;;;5046091;28;20453;-94
2021/09/24 15:06:17;;;;;;;;;;;;;;;;;;;;;
2021/09/24 15:08:32;;;;;;;4.97;4.73;;;21.20;77.20;;;;;;5063058;28;20498;-91
2021/09/24 15:11:05;;;;;;;4.80;4.70;;;21.40;78.40;;;;;;5053471;28;20410;-93
2021/09/24 15:13:56;;;;;;;5.90;4.67;;;21.40;77.20;;;;;;5115675;23;20490;-91
2021/09/24 15:16:25;;;;;;;5.03;4.77;;;22.40;80.10;;;;;;4968234;28;20541;-91
2021/09/24 15:18:51;;;;;;;5.47;5.10;;;21.30;78.20;;;;;;4966949;29;20421;-89
2021/09/24 15:21:40;;;;;;;6.23;4.60;;;22.40;83.00;;;;;;4964428;28;20402;-92